createdAt,value
2022-10-08T00:02:04.474Z,90.10
2022-10-08T00:04:31.387Z,90.00
2022-10-08T00:06:58.281Z,90.40
2022-10-08T00:09:25.181Z,90.30
2022-10-08T00:11:52.279Z,90.30
2022-10-08T00:14:19.183Z,90.30
2022-10-08T00:16:46.657Z,90.30
2022-10-08T00:19:14.571Z,90.50
2022-10-08T00:21:43.248Z,90.30
2022-10-08T00:24:15.368Z,90.40
2022-10-08T00:26:44.019Z,90.50
2022-10-08T00:29:13.397Z,90.40
2022-10-08T00:31:41.356Z,90.40
2022-10-08T00:34:09.815Z,90.40
2022-10-08T00:36:37.451Z,90.30
2022-10-08T00:39:06.374Z,90.30
2022-10-08T00:41:37.390Z,90.30
2022-10-08T00:44:42.723Z,90.50
2022-10-08T00:47:31.400Z,90.80
2022-10-08T00:50:03.873Z,90.80
2022-10-08T00:52:35.459Z,90.90
2022-10-08T00:55:06.801Z,90.80
2022-10-08T00:57:35.034Z,90.70
2022-10-08T01:00:04.205Z,90.80
2022-10-08T01:02:31.066Z,90.70
2022-10-08T01:04:58.155Z,90.90
2022-10-08T01:07:43.892Z,90.70
2022-10-08T01:10:35.479Z,90.80
2022-10-08T01:13:17.457Z,90.80
2022-10-08T01:15:46.830Z,91.00
2022-10-08T01:18:49.793Z,90.50
2022-10-08T01:21:35.637Z,90.70
2022-10-08T01:24:44.847Z,90.70
2022-10-08T01:27:39.466Z,90.60
2022-10-08T01:30:08.043Z,90.50
2022-10-08T01:32:38.928Z,90.40
2022-10-08T01:35:10.041Z,90.50
2022-10-08T01:37:38.994Z,90.40
2022-10-08T01:40:09.615Z,90.40
2022-10-08T01:42:36.475Z,90.40
2022-10-08T01:45:09.792Z,90.40
2022-10-08T01:47:39.671Z,90.60
2022-10-08T01:50:27.192Z,90.50
2022-10-08T01:52:59.731Z,90.50
2022-10-08T01:55:31.994Z,90.50
2022-10-08T01:58:01.883Z,90.50
2022-10-08T02:00:28.737Z,90.40
2022-10-08T02:02:55.758Z,90.40
2022-10-08T02:05:23.739Z,90.50
2022-10-08T02:07:50.958Z,90.70
2022-10-08T02:10:19.685Z,90.50
2022-10-08T02:12:46.764Z,90.40
2022-10-08T02:15:19.996Z,90.50
2022-10-08T02:18:06.473Z,90.50
2022-10-08T02:20:38.395Z,90.40
2022-10-08T02:23:32.934Z,90.40
2022-10-08T02:26:09.031Z,90.60
2022-10-08T02:28:54.096Z,90.50
2022-10-08T02:31:26.978Z,90.60
2022-10-08T02:34:09.367Z,90.50
2022-10-08T02:36:38.716Z,90.50
2022-10-08T02:39:06.029Z,90.50
2022-10-08T02:41:49.643Z,90.50
2022-10-08T02:44:20.582Z,90.50
2022-10-08T02:46:49.331Z,90.40
2022-10-08T02:49:19.336Z,90.50
2022-10-08T02:51:49.356Z,90.50
2022-10-08T02:54:16.803Z,90.50
2022-10-08T02:56:55.970Z,90.70
2022-10-08T02:59:22.874Z,90.60
2022-10-08T03:02:07.899Z,90.40
2022-10-08T03:04:39.510Z,90.30
2022-10-08T03:07:06.491Z,90.20
2022-10-08T03:09:36.087Z,90.30
2022-10-08T03:12:02.952Z,90.30
2022-10-08T03:14:29.823Z,90.30
2022-10-08T03:16:56.737Z,90.40
2022-10-08T03:19:23.607Z,90.20
2022-10-08T03:21:52.030Z,90.70
2022-10-08T03:24:18.968Z,90.50
2022-10-08T03:26:45.958Z,90.70
2022-10-08T03:29:12.966Z,90.70
2022-10-08T03:31:39.909Z,90.50
2022-10-08T03:34:06.829Z,90.60
2022-10-08T03:36:33.741Z,90.70
2022-10-08T03:39:00.713Z,90.70
2022-10-08T03:41:27.595Z,90.60
2022-10-08T03:43:54.470Z,90.60
2022-10-08T03:46:21.417Z,90.50
2022-10-08T03:48:49.172Z,90.50
2022-10-08T03:51:16.175Z,90.60
2022-10-08T03:53:43.583Z,90.60
2022-10-08T03:56:18.468Z,90.60
2022-10-08T03:58:45.739Z,90.60
2022-10-08T04:01:16.714Z,90.50
2022-10-08T04:03:45.336Z,90.50
2022-10-08T04:06:12.358Z,90.60
2022-10-08T04:08:39.285Z,90.40
2022-10-08T04:11:07.222Z,90.60
2022-10-08T04:13:34.590Z,90.30
2022-10-08T04:16:06.215Z,90.50
2022-10-08T04:18:33.336Z,90.60
2022-10-08T04:21:01.006Z,90.70
2022-10-08T04:23:28.095Z,90.40
2022-10-08T04:25:55.121Z,90.60
2022-10-08T04:28:22.850Z,90.70
2022-10-08T04:31:00.134Z,90.70
2022-10-08T04:33:27.703Z,90.60
2022-10-08T04:35:59.673Z,90.60
2022-10-08T04:38:27.478Z,90.60
2022-10-08T04:41:07.975Z,90.70
2022-10-08T04:43:35.399Z,90.70
2022-10-08T04:46:02.577Z,90.70
2022-10-08T04:48:29.738Z,90.70
2022-10-08T04:51:00.832Z,90.40
2022-10-08T04:53:28.736Z,90.60
2022-10-08T04:55:56.477Z,90.70
2022-10-08T04:58:24.745Z,90.80
2022-10-08T05:00:51.860Z,90.80
2022-10-08T05:03:18.708Z,90.50
2022-10-08T05:05:46.083Z,90.40
2022-10-08T05:08:13.022Z,90.70
2022-10-08T05:10:39.887Z,90.80
2022-10-08T05:13:06.806Z,91.10
2022-10-08T05:15:35.226Z,90.70
2022-10-08T05:18:02.134Z,90.60
2022-10-08T05:20:28.957Z,90.80
2022-10-08T05:22:55.783Z,90.90
2022-10-08T05:25:22.706Z,90.60
2022-10-08T05:27:49.542Z,90.40
2022-10-08T05:30:21.082Z,90.40
2022-10-08T05:32:49.188Z,90.30
2022-10-08T05:35:16.623Z,90.50
2022-10-08T05:37:43.491Z,90.60
2022-10-08T05:40:10.806Z,90.70
2022-10-08T05:42:37.738Z,90.70
2022-10-08T05:45:05.446Z,90.60
2022-10-08T05:47:32.306Z,90.60
2022-10-08T05:49:59.155Z,90.70
2022-10-08T05:52:27.224Z,90.80
2022-10-08T05:54:54.094Z,90.70
2022-10-08T05:57:22.332Z,90.60
2022-10-08T05:59:49.162Z,90.50
2022-10-08T06:02:16.043Z,90.60
2022-10-08T06:04:42.955Z,90.40
2022-10-08T06:07:10.030Z,90.20
2022-10-08T06:09:37.124Z,90.50
2022-10-08T06:12:04.121Z,90.50
2022-10-08T06:14:30.976Z,90.40
2022-10-08T06:16:57.887Z,90.50
2022-10-08T06:19:24.802Z,90.40
2022-10-08T06:21:51.640Z,90.40
2022-10-08T06:24:18.654Z,90.40
2022-10-08T06:26:45.557Z,90.50
2022-10-08T06:29:15.396Z,90.40
2022-10-08T06:31:42.568Z,90.30
2022-10-08T06:34:09.545Z,90.60
2022-10-08T06:36:39.240Z,90.40
2022-10-08T06:39:08.478Z,90.60
2022-10-08T06:41:35.448Z,90.50
2022-10-08T06:44:06.774Z,90.40
2022-10-08T06:46:33.912Z,90.50
2022-10-08T06:49:01.356Z,90.50
2022-10-08T06:51:28.454Z,90.40
2022-10-08T06:53:59.405Z,90.30
2022-10-08T06:56:28.538Z,90.30
2022-10-08T06:58:55.441Z,90.30
2022-10-08T07:01:31.826Z,90.50
2022-10-08T07:04:00.897Z,90.60
2022-10-08T07:06:27.929Z,90.70
2022-10-08T07:08:55.753Z,90.70
2022-10-08T07:11:23.076Z,90.90
2022-10-08T07:13:50.079Z,90.70
2022-10-08T07:16:21.005Z,90.90
2022-10-08T07:18:49.564Z,90.80
2022-10-08T07:21:16.971Z,90.70
2022-10-08T07:23:43.910Z,90.70
2022-10-08T07:26:18.298Z,90.60
2022-10-08T07:28:49.619Z,90.60
2022-10-08T07:31:18.700Z,90.50
2022-10-08T07:33:45.618Z,90.40
2022-10-08T07:36:17.016Z,90.40
2022-10-08T07:38:44.322Z,90.40
2022-10-08T07:41:11.501Z,90.30
2022-10-08T07:43:41.481Z,90.20
2022-10-08T07:46:08.848Z,90.20
2022-10-08T07:48:36.321Z,88.20
2022-10-08T07:51:17.255Z,86.90
2022-10-08T07:53:44.476Z,86.20
2022-10-08T07:56:12.834Z,87.00
2022-10-08T07:58:39.723Z,85.50
2022-10-08T08:01:08.821Z,86.60
2022-10-08T08:03:35.840Z,86.10
2022-10-08T08:06:07.620Z,85.30
2022-10-08T08:08:35.309Z,84.00
2022-10-08T08:11:03.073Z,83.80
2022-10-08T08:13:34.420Z,83.80
2022-10-08T08:16:08.000Z,84.20
2022-10-08T08:18:36.951Z,84.40
2022-10-08T08:21:11.486Z,83.30
2022-10-08T08:23:43.300Z,83.60
2022-10-08T08:26:21.271Z,83.50
2022-10-08T08:28:56.254Z,83.50
2022-10-08T08:31:30.838Z,83.40
2022-10-08T08:34:02.337Z,83.20
2022-10-08T08:36:33.558Z,82.90
2022-10-08T08:39:00.516Z,83.30
2022-10-08T08:41:42.430Z,83.60
2022-10-08T08:44:33.998Z,83.00
2022-10-08T08:47:06.465Z,82.90
2022-10-08T08:49:47.290Z,82.80
2022-10-08T08:52:16.265Z,82.00
2022-10-08T08:54:47.064Z,82.30
2022-10-08T08:57:22.818Z,81.20
2022-10-08T08:59:49.720Z,81.70
2022-10-08T09:02:28.774Z,81.90
2022-10-08T09:05:01.287Z,80.40
2022-10-08T09:07:29.676Z,81.10
2022-10-08T09:09:58.327Z,81.50
2022-10-08T09:12:43.631Z,81.50
2022-10-08T09:15:34.714Z,82.00
2022-10-08T09:18:02.549Z,79.50
2022-10-08T09:20:29.376Z,80.60
2022-10-08T09:22:56.698Z,80.10
2022-10-08T09:25:25.305Z,80.20
2022-10-08T09:27:58.442Z,80.80
2022-10-08T09:30:36.814Z,80.60
2022-10-08T09:33:26.562Z,79.00
2022-10-08T09:35:53.717Z,77.90
2022-10-08T09:38:23.567Z,79.80
2022-10-08T09:41:18.192Z,78.50
2022-10-08T09:43:47.978Z,78.00
2022-10-08T09:46:29.157Z,78.80
2022-10-08T09:48:56.129Z,78.70
2022-10-08T09:51:23.066Z,78.20
2022-10-08T09:53:55.974Z,77.60
2022-10-08T09:56:28.519Z,78.30
2022-10-08T09:59:06.422Z,76.10
2022-10-08T10:01:35.602Z,74.40
2022-10-08T10:04:04.143Z,78.20
2022-10-08T10:06:39.825Z,78.40
2022-10-08T10:09:42.010Z,73.70
2022-10-08T10:12:26.019Z,75.40
2022-10-08T10:15:03.673Z,75.30
2022-10-08T10:17:45.447Z,74.80
2022-10-08T10:20:18.091Z,76.20
2022-10-08T10:22:56.660Z,73.90
2022-10-08T10:25:51.397Z,73.90
2022-10-08T10:28:30.162Z,73.30
2022-10-08T10:31:04.079Z,74.00
2022-10-08T10:33:33.026Z,74.00
2022-10-08T10:36:02.186Z,74.00
2022-10-08T10:38:31.563Z,71.80
2022-10-08T10:41:33.320Z,74.20
2022-10-08T10:44:05.666Z,69.10
2022-10-08T10:46:46.051Z,72.30
2022-10-08T10:49:28.403Z,66.60
2022-10-08T10:52:31.803Z,65.30
2022-10-08T10:55:21.635Z,67.40
2022-10-08T10:58:17.871Z,67.40
2022-10-08T11:00:56.267Z,68.30
2022-10-08T11:03:45.805Z,66.70
2022-10-08T11:06:18.913Z,68.10
2022-10-08T11:08:49.057Z,67.30
2022-10-08T11:11:33.175Z,67.40
2022-10-08T11:14:40.098Z,66.70
2022-10-08T11:17:22.248Z,61.80
2022-10-08T11:20:01.604Z,58.30
2022-10-08T11:22:45.788Z,62.00
2022-10-08T11:25:24.791Z,61.10
2022-10-08T11:28:10.859Z,62.10
2022-10-08T11:31:09.558Z,64.50
2022-10-08T11:33:36.846Z,58.10
2022-10-08T11:36:24.033Z,61.20
2022-10-08T11:39:21.592Z,56.00
2022-10-08T11:42:21.455Z,53.80
2022-10-08T11:44:53.295Z,54.50
2022-10-08T11:47:43.490Z,61.40
2022-10-08T11:50:34.924Z,53.20
2022-10-08T11:53:11.624Z,51.40
2022-10-08T11:55:48.818Z,51.10
2022-10-08T11:58:29.900Z,54.60
2022-10-08T12:01:07.160Z,55.80
2022-10-08T12:03:37.217Z,52.70
2022-10-08T12:06:20.735Z,56.50
2022-10-08T12:08:56.332Z,51.50
2022-10-08T12:11:36.250Z,52.60
2022-10-08T12:14:15.189Z,51.00
2022-10-08T12:16:49.675Z,47.90
2022-10-08T12:19:39.699Z,51.50
2022-10-08T12:22:18.718Z,45.90
2022-10-08T12:24:50.494Z,55.10
2022-10-08T12:27:19.166Z,48.90
2022-10-08T12:30:08.462Z,52.70
2022-10-08T12:32:45.975Z,45.00
2022-10-08T12:35:27.127Z,48.50
2022-10-08T12:38:04.345Z,41.50
2022-10-08T12:40:47.719Z,44.60
2022-10-08T12:43:16.476Z,44.60
2022-10-08T12:46:03.730Z,50.50
2022-10-08T12:48:42.661Z,42.20
2022-10-08T12:51:15.879Z,47.50
2022-10-08T12:53:45.337Z,53.20
2022-10-08T12:56:21.192Z,47.40
2022-10-08T12:58:48.337Z,46.70
2022-10-08T13:01:16.951Z,41.50
2022-10-08T13:03:44.465Z,47.60
2022-10-08T13:06:18.621Z,47.70
2022-10-08T13:08:49.996Z,39.40
2022-10-08T13:11:17.364Z,44.10
2022-10-08T13:13:51.901Z,47.20
2022-10-08T13:16:22.970Z,43.10
2022-10-08T13:19:00.341Z,40.30
2022-10-08T13:21:34.818Z,39.00
2022-10-08T13:24:05.454Z,41.80
2022-10-08T13:26:42.179Z,46.50
2022-10-08T13:29:24.282Z,42.70
2022-10-08T13:32:11.602Z,40.70
2022-10-08T13:34:38.451Z,43.20
2022-10-08T13:37:21.889Z,46.20
2022-10-08T13:39:53.433Z,41.80
2022-10-08T13:42:21.754Z,45.20
2022-10-08T13:44:48.622Z,46.20
2022-10-08T13:47:17.054Z,40.70
2022-10-08T13:49:44.220Z,47.60
2022-10-08T13:52:18.446Z,45.20
2022-10-08T13:54:45.417Z,44.00
2022-10-08T13:57:12.374Z,45.40
2022-10-08T13:59:39.276Z,47.30
2022-10-08T14:02:06.408Z,45.80
2022-10-08T14:04:33.378Z,45.40
2022-10-08T14:07:00.322Z,47.10
2022-10-08T14:09:28.176Z,43.20
2022-10-08T14:11:59.499Z,43.80
2022-10-08T14:14:27.123Z,44.20
2022-10-08T14:16:54.120Z,45.90
2022-10-08T14:19:21.433Z,44.40
2022-10-08T14:21:52.951Z,44.40
2022-10-08T14:24:19.807Z,42.00
2022-10-08T14:26:46.637Z,45.20
2022-10-08T14:29:13.509Z,44.10
2022-10-08T14:31:40.475Z,46.70
2022-10-08T14:34:07.523Z,44.70
2022-10-08T14:36:38.590Z,46.50
2022-10-08T14:39:05.567Z,42.50
2022-10-08T14:41:32.796Z,45.00
2022-10-08T14:43:59.853Z,44.90
2022-10-08T14:46:26.835Z,42.40
2022-10-08T14:48:53.839Z,44.90
2022-10-08T14:51:20.924Z,44.50
2022-10-08T14:53:47.858Z,42.60
2022-10-08T14:56:14.950Z,40.80
2022-10-08T14:58:42.841Z,38.00
2022-10-08T15:01:10.184Z,42.00
2022-10-08T15:03:37.114Z,38.20
2022-10-08T15:06:04.210Z,42.50
2022-10-08T15:08:31.099Z,42.30
2022-10-08T15:11:00.954Z,42.40
2022-10-08T15:13:28.220Z,42.00
2022-10-08T15:15:55.876Z,36.60
2022-10-08T15:18:23.134Z,40.90
2022-10-08T15:21:00.816Z,42.10
2022-10-08T15:23:27.803Z,38.70
2022-10-08T15:26:07.977Z,42.40
2022-10-08T15:28:38.087Z,38.80
2022-10-08T15:31:15.658Z,39.40
2022-10-08T15:33:50.147Z,39.70
2022-10-08T15:36:21.541Z,40.10
2022-10-08T15:38:49.407Z,42.50
2022-10-08T15:41:17.610Z,40.90
2022-10-08T15:43:44.817Z,42.00
2022-10-08T15:46:13.592Z,40.20
2022-10-08T15:48:40.637Z,38.80
2022-10-08T15:51:07.613Z,42.50
2022-10-08T15:53:36.021Z,42.90
2022-10-08T15:56:03.510Z,42.00
2022-10-08T15:58:49.983Z,43.60
2022-10-08T16:01:19.586Z,41.00
2022-10-08T16:03:48.133Z,42.10
2022-10-08T16:06:23.198Z,40.00
2022-10-08T16:08:50.236Z,39.70
2022-10-08T16:11:19.214Z,42.10
2022-10-08T16:13:48.349Z,42.20
2022-10-08T16:16:18.397Z,42.00
2022-10-08T16:18:47.090Z,41.20
2022-10-08T16:21:14.113Z,43.00
2022-10-08T16:23:41.006Z,42.50
2022-10-08T16:26:11.252Z,43.10
2022-10-08T16:28:39.361Z,41.80
2022-10-08T16:31:07.523Z,41.80
2022-10-08T16:33:35.049Z,42.40
2022-10-08T16:36:03.128Z,42.70
2022-10-08T16:38:30.645Z,43.10
2022-10-08T16:41:16.999Z,43.60
2022-10-08T16:43:50.491Z,41.30
2022-10-08T16:46:19.361Z,44.90
2022-10-08T16:48:56.997Z,44.40
2022-10-08T16:51:24.517Z,45.20
2022-10-08T16:53:52.609Z,47.00
2022-10-08T16:56:20.034Z,46.70
2022-10-08T16:58:54.490Z,48.00
2022-10-08T17:01:21.517Z,47.90
2022-10-08T17:03:49.671Z,48.90
2022-10-08T17:06:17.168Z,48.90
2022-10-08T17:08:44.172Z,49.40
2022-10-08T17:11:11.741Z,50.00
2022-10-08T17:13:46.587Z,50.40
2022-10-08T17:16:13.743Z,52.30
2022-10-08T17:18:40.774Z,51.70
2022-10-08T17:21:07.653Z,53.00
2022-10-08T17:23:36.883Z,53.40
2022-10-08T17:26:06.182Z,53.10
2022-10-08T17:28:35.262Z,54.50
2022-10-08T17:31:02.742Z,54.90
2022-10-08T17:33:34.646Z,54.10
2022-10-08T17:36:23.372Z,56.00
2022-10-08T17:38:54.618Z,58.30
2022-10-08T17:41:23.546Z,58.50
2022-10-08T17:43:50.647Z,57.80
2022-10-08T17:46:25.393Z,56.50
2022-10-08T17:48:52.594Z,59.40
2022-10-08T17:51:21.023Z,58.70
2022-10-08T17:53:55.033Z,59.20
2022-10-08T17:56:22.021Z,60.70
2022-10-08T17:58:49.112Z,60.60
2022-10-08T18:01:17.950Z,60.60
2022-10-08T18:03:49.174Z,60.90
2022-10-08T18:06:16.047Z,61.40
2022-10-08T18:08:42.961Z,61.70
2022-10-08T18:11:10.670Z,63.00
2022-10-08T18:13:37.593Z,63.50
2022-10-08T18:16:05.809Z,63.40
2022-10-08T18:18:32.861Z,63.80
2022-10-08T18:21:00.378Z,63.40
2022-10-08T18:23:30.959Z,64.30
2022-10-08T18:26:15.287Z,64.60
2022-10-08T18:28:42.296Z,66.10
2022-10-08T18:31:10.117Z,64.60
2022-10-08T18:33:38.587Z,65.10
2022-10-08T18:36:16.020Z,65.60
2022-10-08T18:38:43.891Z,67.50
2022-10-08T18:41:38.891Z,66.30
2022-10-08T18:44:06.498Z,69.00
2022-10-08T18:46:34.485Z,66.70
2022-10-08T18:49:01.520Z,67.70
2022-10-08T18:51:28.979Z,68.10
2022-10-08T18:53:56.826Z,67.50
2022-10-08T18:56:28.593Z,68.40
2022-10-08T18:58:56.703Z,68.90
2022-10-08T19:01:28.247Z,68.10
2022-10-08T19:03:56.405Z,68.80
2022-10-08T19:06:27.753Z,69.60
2022-10-08T19:08:58.665Z,69.30
2022-10-08T19:11:27.366Z,69.40
2022-10-08T19:13:54.564Z,68.90
2022-10-08T19:16:21.639Z,70.10
2022-10-08T19:18:53.250Z,69.80
2022-10-08T19:21:20.206Z,71.20
2022-10-08T19:23:47.026Z,73.20
2022-10-08T19:26:14.099Z,73.10
2022-10-08T19:28:41.225Z,73.00
2022-10-08T19:31:15.997Z,73.10
2022-10-08T19:33:43.348Z,72.40
2022-10-08T19:36:10.449Z,73.10
2022-10-08T19:38:37.421Z,73.60
2022-10-08T19:41:08.438Z,74.10
2022-10-08T19:43:35.380Z,74.50
2022-10-08T19:46:03.894Z,74.60
2022-10-08T19:48:31.647Z,74.50
2022-10-08T19:51:09.598Z,74.40
2022-10-08T19:53:36.863Z,75.60
2022-10-08T19:56:04.589Z,75.00
2022-10-08T19:58:31.681Z,76.10
2022-10-08T20:01:03.253Z,75.20
2022-10-08T20:03:30.170Z,74.90
2022-10-08T20:05:56.992Z,75.30
2022-10-08T20:08:23.947Z,75.10
2022-10-08T20:10:50.823Z,75.20
2022-10-08T20:13:17.787Z,75.50
2022-10-08T20:15:47.711Z,76.20
2022-10-08T20:18:18.006Z,75.70
2022-10-08T20:20:44.838Z,76.00
2022-10-08T20:23:11.747Z,76.00
2022-10-08T20:25:38.677Z,76.10
2022-10-08T20:28:05.651Z,76.40
2022-10-08T20:30:32.519Z,76.80
2022-10-08T20:32:59.405Z,77.20
2022-10-08T20:35:26.240Z,77.10
2022-10-08T20:37:53.175Z,77.00
2022-10-08T20:40:20.242Z,77.10
2022-10-08T20:42:48.960Z,77.40
2022-10-08T20:45:15.983Z,77.30
2022-10-08T20:47:42.824Z,77.20
2022-10-08T20:50:09.975Z,77.50
2022-10-08T20:52:36.904Z,77.40
2022-10-08T20:55:03.872Z,77.20
2022-10-08T20:57:30.707Z,77.20
2022-10-08T20:59:57.632Z,77.40
2022-10-08T21:02:24.546Z,77.10
2022-10-08T21:04:51.384Z,77.50
2022-10-08T21:07:18.282Z,78.30
2022-10-08T21:09:45.117Z,77.80
2022-10-08T21:12:11.981Z,77.70
2022-10-08T21:14:38.866Z,78.10
2022-10-08T21:17:05.741Z,78.10
2022-10-08T21:19:32.603Z,78.90
2022-10-08T21:21:59.526Z,78.60
2022-10-08T21:24:26.341Z,78.60
2022-10-08T21:26:53.151Z,78.60
2022-10-08T21:29:20.123Z,78.80
2022-10-08T21:31:47.095Z,79.10
2022-10-08T21:34:14.054Z,78.90
2022-10-08T21:36:41.697Z,79.70
2022-10-08T21:39:10.303Z,80.50
2022-10-08T21:41:37.526Z,79.40
2022-10-08T21:44:06.038Z,79.40
2022-10-08T21:46:34.999Z,79.80
2022-10-08T21:49:03.856Z,79.50
2022-10-08T21:51:31.158Z,80.50
2022-10-08T21:53:59.112Z,80.40
2022-10-08T21:56:27.818Z,79.70
2022-10-08T21:58:55.790Z,79.70
2022-10-08T22:01:30.850Z,79.70
2022-10-08T22:03:59.387Z,79.70
2022-10-08T22:06:30.151Z,79.70
2022-10-08T22:08:57.392Z,79.20
2022-10-08T22:11:24.441Z,79.50
2022-10-08T22:13:51.347Z,79.60
2022-10-08T22:16:19.377Z,79.60
2022-10-08T22:18:46.414Z,80.30
2022-10-08T22:21:18.165Z,79.60
2022-10-08T22:23:45.060Z,79.60
2022-10-08T22:26:13.904Z,79.60
2022-10-08T22:28:40.907Z,79.60
2022-10-08T22:31:09.400Z,79.90
2022-10-08T22:33:36.359Z,79.50
2022-10-08T22:36:07.790Z,79.70
2022-10-08T22:38:36.891Z,79.90
2022-10-08T22:41:07.802Z,80.20
2022-10-08T22:43:36.063Z,80.10
2022-10-08T22:46:04.165Z,80.30
2022-10-08T22:48:31.535Z,80.20
2022-10-08T22:51:06.311Z,80.30
2022-10-08T22:53:33.282Z,80.40
2022-10-08T22:56:00.159Z,80.40
2022-10-08T22:58:27.070Z,80.20
2022-10-08T23:01:04.096Z,80.50
2022-10-08T23:03:31.434Z,80.50
2022-10-08T23:06:02.870Z,80.50
2022-10-08T23:08:29.782Z,80.90
2022-10-08T23:10:57.434Z,80.80
2022-10-08T23:13:26.071Z,80.50
2022-10-08T23:16:22.568Z,80.70
2022-10-08T23:18:57.286Z,81.50
2022-10-08T23:21:24.342Z,81.30
2022-10-08T23:23:51.251Z,81.10
2022-10-08T23:26:18.200Z,80.70
2022-10-08T23:28:45.545Z,80.80
2022-10-08T23:31:17.099Z,80.90
2022-10-08T23:33:45.798Z,80.60
2022-10-08T23:36:17.755Z,80.70
2022-10-08T23:38:44.710Z,81.40
2022-10-08T23:41:11.791Z,80.80
2022-10-08T23:43:41.111Z,79.30
2022-10-08T23:46:08.885Z,80.50
2022-10-08T23:48:35.900Z,81.00
2022-10-08T23:51:02.984Z,80.60
2022-10-08T23:53:30.026Z,80.80
2022-10-08T23:55:56.850Z,81.80
2022-10-08T23:58:23.802Z,81.20
